createdAt,value
2023-07-03T00:01:18.074Z,6.40
2023-07-03T00:03:44.646Z,5.95
2023-07-03T00:06:11.220Z,5.00
2023-07-03T00:08:37.891Z,6.90
2023-07-03T00:11:06.667Z,6.63
2023-07-03T00:13:33.369Z,5.00
2023-07-03T00:16:01.429Z,6.57
2023-07-03T00:18:29.806Z,4.72
2023-07-03T00:20:56.875Z,6.65
2023-07-03T00:23:24.534Z,9.10
2023-07-03T00:25:52.024Z,7.43
2023-07-03T00:28:19.630Z,5.22
2023-07-03T00:30:46.405Z,7.07
2023-07-03T00:33:13.385Z,6.82
2023-07-03T00:35:40.611Z,5.68
2023-07-03T00:38:07.425Z,7.07
2023-07-03T00:40:34.395Z,7.18
2023-07-03T00:43:02.071Z,7.05
2023-07-03T00:45:28.939Z,5.65
2023-07-03T00:47:55.887Z,6.75
2023-07-03T00:50:23.152Z,8.27
2023-07-03T00:57:01.749Z,8.02
2023-07-03T00:59:29.520Z,5.93
2023-07-03T01:02:08.881Z,5.68
2023-07-03T01:04:37.960Z,6.10
2023-07-03T01:07:33.079Z,4.75
2023-07-03T01:10:05.004Z,6.78
2023-07-03T01:12:34.749Z,4.68
2023-07-03T01:15:05.684Z,5.60
2023-07-03T01:17:33.278Z,6.65
2023-07-03T01:20:03.389Z,7.03
2023-07-03T01:22:47.586Z,6.30
2023-07-03T01:25:18.375Z,6.43
2023-07-03T01:27:48.299Z,6.30
2023-07-03T01:30:17.885Z,5.28
2023-07-03T01:32:47.371Z,6.13
2023-07-03T01:35:15.915Z,7.25
2023-07-03T01:37:47.871Z,5.43
2023-07-03T01:40:17.193Z,6.75
2023-07-03T01:42:45.302Z,3.88
2023-07-03T01:45:11.957Z,6.95
2023-07-03T01:47:38.827Z,6.07
2023-07-03T01:50:14.174Z,6.20
2023-07-03T01:52:44.538Z,5.93
2023-07-03T01:55:36.566Z,4.80
2023-07-03T01:58:24.426Z,5.20
2023-07-03T02:00:55.725Z,7.65
2023-07-03T02:03:37.280Z,5.45
2023-07-03T02:06:13.642Z,5.47
2023-07-03T02:08:40.258Z,5.18
2023-07-03T02:11:15.615Z,5.70
2023-07-03T02:13:42.164Z,7.20
2023-07-03T02:16:08.699Z,4.35
2023-07-03T02:18:35.416Z,5.97
2023-07-03T02:21:02.223Z,6.65
2023-07-03T02:23:28.956Z,5.28
2023-07-03T02:25:55.480Z,4.57
2023-07-03T02:28:22.014Z,3.55
2023-07-03T02:30:48.585Z,4.00
2023-07-03T02:33:15.145Z,4.43
2023-07-03T02:35:42.635Z,5.28
2023-07-03T02:38:10.117Z,4.90
2023-07-03T02:40:37.363Z,4.45
2023-07-03T02:43:05.148Z,4.50
2023-07-03T02:45:38.016Z,4.32
2023-07-03T02:48:05.002Z,5.50
2023-07-03T02:50:31.530Z,3.70
2023-07-03T02:52:58.146Z,4.82
2023-07-03T02:55:25.126Z,3.58
2023-07-03T02:57:52.217Z,3.90
2023-07-03T03:00:18.903Z,6.28
2023-07-03T03:02:45.730Z,3.90
2023-07-03T03:05:14.558Z,4.97
2023-07-03T03:07:41.475Z,4.75
2023-07-03T03:10:09.026Z,2.95
2023-07-03T03:12:35.682Z,3.45
2023-07-03T03:15:02.334Z,3.17
2023-07-03T03:17:28.938Z,4.18
2023-07-03T03:19:57.255Z,3.30
2023-07-03T03:22:24.935Z,4.38
2023-07-03T03:24:51.465Z,3.83
2023-07-03T03:27:18.031Z,4.47
2023-07-03T03:29:44.575Z,3.53
2023-07-03T03:32:11.123Z,3.17
2023-07-03T03:34:37.682Z,3.33
2023-07-03T03:37:04.738Z,4.03
2023-07-03T03:39:31.286Z,3.05
2023-07-03T03:41:57.803Z,4.60
2023-07-03T03:44:24.348Z,3.70
2023-07-03T03:46:54.153Z,3.28
2023-07-03T03:49:21.014Z,3.38
2023-07-03T03:51:47.800Z,2.28
2023-07-03T03:54:14.445Z,3.65
2023-07-03T03:56:40.991Z,3.97
2023-07-03T03:59:07.747Z,3.80
2023-07-03T04:01:35.622Z,3.50
2023-07-03T04:04:02.606Z,3.10
2023-07-03T04:06:29.485Z,4.95
2023-07-03T04:09:00.024Z,2.60
2023-07-03T04:11:27.681Z,2.92
2023-07-03T04:13:54.228Z,3.40
2023-07-03T04:16:21.631Z,2.20
2023-07-03T04:18:48.197Z,3.63
2023-07-03T04:21:16.508Z,3.53
2023-07-03T04:23:44.444Z,2.03
2023-07-03T04:26:11.549Z,4.25
2023-07-03T04:28:38.181Z,3.55
2023-07-03T04:31:04.902Z,2.92
2023-07-03T04:33:31.446Z,2.88
2023-07-03T04:35:58.268Z,3.63
2023-07-03T04:38:25.303Z,4.10
2023-07-03T04:40:54.292Z,4.07
2023-07-03T04:43:21.935Z,3.35
2023-07-03T04:45:52.169Z,2.85
2023-07-03T04:48:20.401Z,3.25
2023-07-03T04:50:49.585Z,3.58
2023-07-03T04:53:22.020Z,3.80
2023-07-03T04:55:49.741Z,3.25
2023-07-03T04:58:16.670Z,5.32
2023-07-03T05:00:43.300Z,4.35
2023-07-03T05:03:10.501Z,3.60
2023-07-03T05:05:37.238Z,3.67
2023-07-03T05:08:04.120Z,3.50
2023-07-03T05:10:31.119Z,4.15
2023-07-03T05:12:57.785Z,3.55
2023-07-03T05:15:26.106Z,4.40
2023-07-03T05:17:56.277Z,3.70
2023-07-03T05:22:50.716Z,3.22
2023-07-03T05:25:18.672Z,4.60
2023-07-03T05:27:46.582Z,4.72
2023-07-03T05:30:14.110Z,3.35
2023-07-03T05:32:41.349Z,3.30
2023-07-03T05:35:09.262Z,3.78
2023-07-03T05:37:37.736Z,3.80
2023-07-03T05:40:07.900Z,5.15
2023-07-03T05:42:35.109Z,3.92
2023-07-03T05:45:01.858Z,2.70
2023-07-03T05:47:28.846Z,5.38
2023-07-03T05:49:55.859Z,4.40
2023-07-03T05:52:22.730Z,3.03
2023-07-03T05:54:49.409Z,4.13
2023-07-03T05:57:16.108Z,3.83
2023-07-03T05:59:42.643Z,3.80
2023-07-03T06:02:12.936Z,3.58
2023-07-03T06:07:07.302Z,4.53
2023-07-03T06:09:37.078Z,4.95
2023-07-03T06:12:04.131Z,5.03
2023-07-03T06:14:32.550Z,3.85
2023-07-03T06:17:00.154Z,6.38
2023-07-03T06:19:28.017Z,3.70
2023-07-03T06:21:55.072Z,4.88
2023-07-03T06:24:21.863Z,5.50
2023-07-03T06:26:48.605Z,5.28
2023-07-03T06:29:15.910Z,4.72
2023-07-03T06:31:42.895Z,2.97
2023-07-03T06:34:09.766Z,2.28
2023-07-03T06:36:36.428Z,4.20
2023-07-03T06:39:09.210Z,2.92
2023-07-03T06:41:36.583Z,3.30
2023-07-03T06:44:05.308Z,5.32
2023-07-03T06:46:32.301Z,3.05
2023-07-03T06:48:59.206Z,4.25
2023-07-03T06:51:26.087Z,3.78
2023-07-03T06:53:52.937Z,5.35
2023-07-03T06:56:20.887Z,3.70
2023-07-03T06:58:51.155Z,3.83
2023-07-03T07:01:21.341Z,6.13
2023-07-03T07:06:21.029Z,3.83
2023-07-03T07:08:47.630Z,3.85
2023-07-03T07:11:19.929Z,4.78
2023-07-03T07:13:49.167Z,4.35
2023-07-03T07:16:19.146Z,5.35
2023-07-03T07:18:48.988Z,3.30
2023-07-03T07:21:15.591Z,4.35
2023-07-03T07:23:42.333Z,5.38
2023-07-03T07:26:08.906Z,2.35
2023-07-03T07:28:35.584Z,2.72
2023-07-03T07:31:02.281Z,3.55
2023-07-03T07:33:29.018Z,3.15
2023-07-03T07:35:55.651Z,2.85
2023-07-03T07:38:23.076Z,3.33
2023-07-03T07:40:50.942Z,3.40
2023-07-03T07:43:17.523Z,5.45
2023-07-03T07:45:44.116Z,3.63
2023-07-03T07:48:10.733Z,4.35
2023-07-03T07:50:38.004Z,7.57
2023-07-03T07:53:04.666Z,14.57
2023-07-03T07:55:31.695Z,14.07
2023-07-03T07:57:58.246Z,13.40
2023-07-03T08:00:24.976Z,15.63
2023-07-03T08:02:51.671Z,17.25
2023-07-03T08:05:18.286Z,14.10
2023-07-03T08:07:46.075Z,14.38
2023-07-03T08:10:13.528Z,13.65
2023-07-03T08:12:41.078Z,15.02
2023-07-03T08:15:10.398Z,12.60
2023-07-03T08:17:37.402Z,13.20
2023-07-03T08:20:10.043Z,10.43
2023-07-03T08:22:36.592Z,11.63
2023-07-03T08:25:03.390Z,9.43
2023-07-03T08:27:30.004Z,7.88
2023-07-03T08:29:57.576Z,7.90
2023-07-03T08:32:24.423Z,6.60
2023-07-03T08:37:21.337Z,6.50
2023-07-03T08:39:47.866Z,8.52
2023-07-03T08:42:24.920Z,6.80
2023-07-03T08:44:51.766Z,6.43
2023-07-03T08:47:27.058Z,5.85
2023-07-03T08:49:55.141Z,5.72
2023-07-03T08:52:31.985Z,6.15
2023-07-03T08:54:59.121Z,4.15
2023-07-03T08:57:27.237Z,5.45
2023-07-03T08:59:55.086Z,3.95
2023-07-03T09:02:38.903Z,4.07
2023-07-03T09:05:24.617Z,3.17
2023-07-03T09:07:55.371Z,5.32
2023-07-03T09:10:32.894Z,3.85
2023-07-03T09:13:12.679Z,4.78
2023-07-03T09:16:02.250Z,3.90
2023-07-03T09:18:51.656Z,2.78
2023-07-03T09:21:18.254Z,3.50
2023-07-03T09:23:57.502Z,5.25
2023-07-03T09:26:32.111Z,5.60
2023-07-03T09:28:59.623Z,6.13
2023-07-03T09:31:29.236Z,4.80
2023-07-03T09:33:55.799Z,4.25
2023-07-03T09:36:24.635Z,3.70
2023-07-03T09:38:51.250Z,4.38
2023-07-03T09:41:30.463Z,4.00
2023-07-03T09:43:57.465Z,3.75
2023-07-03T09:46:25.365Z,5.78
2023-07-03T09:48:52.379Z,4.45
2023-07-03T09:51:31.166Z,4.13
2023-07-03T09:54:00.322Z,4.93
2023-07-03T09:56:30.854Z,5.47
2023-07-03T09:59:04.813Z,3.65
2023-07-03T10:04:04.615Z,4.25
2023-07-03T10:07:06.993Z,4.45
2023-07-03T10:12:13.204Z,3.38
2023-07-03T10:14:46.238Z,5.43
2023-07-03T10:17:15.068Z,5.63
2023-07-03T10:19:46.753Z,4.45
2023-07-03T10:22:15.479Z,4.13
2023-07-03T10:24:43.927Z,4.38
2023-07-03T10:27:10.567Z,4.85
2023-07-03T10:29:42.889Z,3.65
2023-07-03T10:32:15.553Z,5.10
2023-07-03T10:35:03.583Z,5.65
2023-07-03T10:37:39.870Z,5.65
2023-07-03T10:40:18.613Z,4.00
2023-07-03T10:42:57.583Z,3.50
2023-07-03T10:45:26.740Z,3.75
2023-07-03T10:48:15.946Z,3.63
2023-07-03T10:50:45.461Z,5.20
2023-07-03T10:53:12.048Z,4.90
2023-07-03T10:55:38.590Z,4.00
2023-07-03T10:58:35.157Z,4.03
2023-07-03T11:01:17.357Z,6.47
2023-07-03T11:04:23.781Z,4.40
2023-07-03T11:07:04.574Z,3.03
2023-07-03T11:09:49.855Z,3.72
2023-07-03T11:12:33.749Z,4.95
2023-07-03T11:15:16.543Z,4.88
2023-07-03T11:23:19.626Z,5.80
2023-07-03T11:28:41.944Z,5.13
2023-07-03T11:31:10.719Z,4.20
2023-07-03T11:36:08.492Z,4.72
2023-07-03T11:43:55.928Z,2.75
2023-07-03T11:46:25.679Z,4.82
2023-07-03T11:48:57.562Z,3.00
2023-07-03T11:51:36.371Z,3.92
2023-07-03T11:54:17.900Z,2.60
2023-07-03T11:56:47.817Z,3.42
2023-07-03T11:59:23.930Z,5.18
2023-07-03T12:01:52.581Z,5.25
2023-07-03T12:04:46.171Z,2.92
2023-07-03T12:07:20.484Z,3.05
2023-07-03T12:09:51.410Z,3.67
2023-07-03T12:12:28.086Z,5.72
2023-07-03T12:15:01.880Z,1.85
2023-07-03T12:17:34.567Z,4.18
2023-07-03T12:20:18.291Z,1.77
2023-07-03T12:22:49.047Z,3.20
2023-07-03T12:25:21.422Z,3.95
2023-07-03T12:27:49.357Z,4.32
2023-07-03T12:30:31.040Z,2.90
2023-07-03T12:32:59.229Z,3.85
2023-07-03T12:35:36.850Z,4.25
2023-07-03T12:38:09.154Z,2.42
2023-07-03T12:40:46.456Z,2.92
2023-07-03T12:43:18.953Z,3.80
2023-07-03T12:45:53.789Z,2.20
2023-07-03T12:48:23.380Z,3.40
2023-07-03T12:50:57.273Z,4.80
2023-07-03T12:53:29.415Z,2.63
2023-07-03T12:56:03.245Z,3.90
2023-07-03T12:58:30.290Z,2.13
2023-07-03T13:01:02.681Z,3.72
2023-07-03T13:03:29.294Z,4.03
2023-07-03T13:05:56.254Z,2.63
2023-07-03T13:08:23.177Z,2.22
2023-07-03T13:11:03.770Z,5.03
2023-07-03T13:13:30.705Z,2.97
2023-07-03T13:15:57.334Z,4.00
2023-07-03T13:18:24.761Z,2.90
2023-07-03T13:21:06.975Z,2.95
2023-07-03T13:23:37.844Z,2.58
2023-07-03T13:26:10.196Z,4.30
2023-07-03T13:28:39.788Z,3.20
2023-07-03T13:31:18.965Z,2.60
2023-07-03T13:34:03.856Z,3.75
2023-07-03T13:36:36.394Z,4.68
2023-07-03T13:39:13.846Z,2.58
2023-07-03T13:41:42.747Z,4.07
2023-07-03T13:44:13.493Z,3.65
2023-07-03T13:46:41.490Z,3.42
2023-07-03T13:49:09.459Z,2.55
2023-07-03T13:51:39.089Z,5.38
2023-07-03T13:54:11.888Z,3.60
2023-07-03T13:56:41.007Z,3.63
2023-07-03T13:59:12.266Z,4.07
2023-07-03T14:01:40.951Z,4.95
2023-07-03T14:04:08.248Z,2.85
2023-07-03T14:06:35.001Z,3.85
2023-07-03T14:09:01.816Z,4.22
2023-07-03T14:11:28.380Z,3.42
2023-07-03T14:13:56.627Z,3.53
2023-07-03T14:16:24.266Z,3.47
2023-07-03T14:18:50.760Z,4.05
2023-07-03T14:21:18.341Z,4.05
2023-07-03T14:23:45.753Z,2.17
2023-07-03T14:26:13.460Z,3.15
2023-07-03T14:28:41.036Z,2.30
2023-07-03T14:31:11.230Z,3.83
2023-07-03T14:36:04.609Z,4.00
2023-07-03T14:38:31.263Z,4.18
2023-07-03T14:40:59.413Z,7.30
2023-07-03T14:43:25.994Z,4.60
2023-07-03T14:45:52.739Z,3.83
2023-07-03T14:48:20.496Z,3.25
2023-07-03T14:50:50.510Z,5.65
2023-07-03T14:53:17.037Z,4.13
2023-07-03T14:55:43.636Z,6.45
2023-07-03T14:58:11.425Z,9.93
2023-07-03T15:00:40.159Z,11.65
2023-07-03T15:03:07.156Z,10.98
2023-07-03T15:05:33.978Z,9.55
2023-07-03T15:08:00.628Z,16.80
2023-07-03T15:10:27.228Z,12.18
2023-07-03T15:12:53.843Z,14.27
2023-07-03T15:15:20.748Z,12.57
2023-07-03T15:17:51.862Z,9.85
2023-07-03T15:20:18.531Z,10.80
2023-07-03T15:22:50.899Z,12.82
2023-07-03T15:25:17.545Z,8.77
2023-07-03T15:27:44.132Z,10.07
2023-07-03T15:30:11.452Z,8.52
2023-07-03T15:32:38.047Z,9.70
2023-07-03T15:35:04.885Z,7.72
2023-07-03T15:37:31.634Z,10.73
2023-07-03T15:39:58.154Z,6.45
2023-07-03T15:42:24.829Z,7.10
2023-07-03T15:44:58.632Z,5.20
2023-07-03T15:47:26.589Z,7.25
2023-07-03T15:49:57.449Z,6.95
2023-07-03T15:52:24.767Z,6.57
2023-07-03T15:54:52.685Z,7.30
2023-07-03T15:57:21.010Z,5.55
2023-07-03T15:59:47.676Z,7.95
2023-07-03T16:02:14.296Z,6.25
2023-07-03T16:04:42.778Z,7.75
2023-07-03T16:07:09.892Z,6.47
2023-07-03T16:09:36.486Z,8.35
2023-07-03T16:12:03.117Z,4.65
2023-07-03T16:14:29.763Z,6.13
2023-07-03T16:16:56.384Z,4.55
2023-07-03T16:19:24.428Z,7.93
2023-07-03T16:21:51.058Z,6.38
2023-07-03T16:24:17.830Z,4.53
2023-07-03T16:26:44.381Z,6.63
2023-07-03T16:29:11.029Z,6.43
2023-07-03T16:31:40.201Z,7.25
2023-07-03T16:34:07.858Z,5.85
2023-07-03T16:36:34.391Z,5.35
2023-07-03T16:39:05.549Z,6.93
2023-07-03T16:41:38.815Z,5.22
2023-07-03T16:44:06.092Z,5.57
2023-07-03T16:46:32.787Z,5.90
2023-07-03T16:48:59.966Z,6.68
2023-07-03T16:51:28.078Z,5.88
2023-07-03T16:53:55.421Z,6.25
2023-07-03T16:56:25.623Z,8.27
2023-07-03T16:58:54.683Z,6.07
2023-07-03T17:01:23.745Z,6.57
2023-07-03T17:03:52.098Z,7.47
2023-07-03T17:06:21.664Z,8.85
2023-07-03T17:08:49.126Z,8.20
2023-07-03T17:11:16.227Z,7.05
2023-07-03T17:13:42.928Z,8.15
2023-07-03T17:16:10.044Z,8.07
2023-07-03T17:18:36.854Z,8.48
2023-07-03T17:21:03.513Z,9.45
2023-07-03T17:23:30.684Z,7.57
2023-07-03T17:25:57.243Z,7.93
2023-07-03T17:28:23.824Z,7.43
2023-07-03T17:30:51.495Z,5.72
2023-07-03T17:33:18.321Z,8.23
2023-07-03T17:35:48.781Z,8.88
2023-07-03T17:38:16.933Z,5.38
2023-07-03T17:40:46.551Z,7.93
2023-07-03T17:43:14.682Z,5.97
2023-07-03T17:45:42.972Z,8.27
2023-07-03T17:48:09.780Z,6.60
2023-07-03T17:50:36.404Z,7.55
2023-07-03T17:53:02.999Z,7.50
2023-07-03T17:55:32.258Z,6.72
2023-07-03T17:57:59.121Z,6.03
2023-07-03T18:00:25.628Z,8.95
2023-07-03T18:02:52.299Z,9.20
2023-07-03T18:05:18.954Z,7.07
2023-07-03T18:07:45.521Z,6.15
2023-07-03T18:10:12.372Z,7.03
2023-07-03T18:12:39.460Z,9.10
2023-07-03T18:15:07.709Z,9.07
2023-07-03T18:17:34.459Z,7.65
2023-07-03T18:20:03.017Z,6.75
2023-07-03T18:22:29.668Z,6.43
2023-07-03T18:24:56.222Z,8.45
2023-07-03T18:27:22.942Z,7.57
2023-07-03T18:29:49.636Z,6.10
2023-07-03T18:32:16.318Z,6.72
2023-07-03T18:34:42.865Z,8.70
2023-07-03T18:37:09.389Z,6.65
2023-07-03T18:39:36.084Z,7.82
2023-07-03T18:42:02.737Z,7.75
2023-07-03T18:44:29.406Z,6.25
2023-07-03T18:46:56.205Z,5.03
2023-07-03T18:49:22.855Z,5.38
2023-07-03T18:51:50.844Z,8.57
2023-07-03T18:54:17.593Z,5.15
2023-07-03T18:56:44.171Z,7.03
2023-07-03T18:59:11.062Z,7.07
2023-07-03T19:01:38.743Z,6.97
2023-07-03T19:04:05.607Z,7.35
2023-07-03T19:06:32.594Z,5.45
2023-07-03T19:08:59.316Z,6.35
2023-07-03T19:11:28.100Z,7.40
2023-07-03T19:13:54.768Z,6.30
2023-07-03T19:16:21.621Z,5.38
2023-07-03T19:18:49.546Z,3.83
2023-07-03T19:21:17.347Z,5.35
2023-07-03T19:23:44.531Z,7.63
2023-07-03T19:26:11.471Z,5.15
2023-07-03T19:28:38.113Z,5.18
2023-07-03T19:31:05.751Z,6.10
2023-07-03T19:33:32.900Z,6.28
2023-07-03T19:36:00.729Z,4.80
2023-07-03T19:38:28.168Z,5.03
2023-07-03T19:40:54.819Z,5.00
2023-07-03T19:43:22.112Z,4.72
2023-07-03T19:45:49.079Z,4.13
2023-07-03T19:48:17.500Z,6.93
2023-07-03T19:50:44.294Z,5.90
2023-07-03T19:53:10.914Z,4.70
2023-07-03T19:55:38.177Z,3.63
2023-07-03T19:58:05.226Z,4.72
2023-07-03T20:00:32.283Z,4.55
2023-07-03T20:02:59.026Z,4.88
2023-07-03T20:05:25.977Z,4.32
2023-07-03T20:07:52.796Z,4.65
2023-07-03T20:10:19.721Z,6.38
2023-07-03T20:12:51.667Z,8.57
2023-07-03T20:15:22.708Z,7.95
2023-07-03T20:17:50.068Z,5.60
2023-07-03T20:20:16.729Z,7.88
2023-07-03T20:22:44.695Z,3.97
2023-07-03T20:25:11.739Z,6.68
2023-07-03T20:27:38.994Z,11.38
2023-07-03T20:30:06.613Z,6.63
2023-07-03T20:32:34.799Z,5.35
2023-07-03T20:35:03.027Z,5.32
2023-07-03T20:37:29.717Z,4.75
2023-07-03T20:39:58.937Z,10.07
2023-07-03T20:42:28.177Z,5.97
2023-07-03T20:44:56.516Z,7.05
2023-07-03T20:47:25.938Z,5.53
2023-07-03T20:49:55.949Z,5.13
2023-07-03T20:52:23.557Z,6.95
2023-07-03T20:55:05.981Z,4.88
2023-07-03T20:57:34.557Z,6.15
2023-07-03T21:00:02.160Z,4.60
2023-07-03T21:02:29.183Z,5.88
2023-07-03T21:04:56.056Z,4.70
2023-07-03T21:07:22.893Z,5.90
2023-07-03T21:09:49.550Z,3.92
2023-07-03T21:12:16.106Z,6.57
2023-07-03T21:14:42.727Z,4.38
2023-07-03T21:17:09.295Z,3.38
2023-07-03T21:19:35.797Z,3.85
2023-07-03T21:22:02.295Z,3.38
2023-07-03T21:24:28.960Z,3.40
2023-07-03T21:26:55.480Z,4.68
2023-07-03T21:29:22.139Z,5.72
2023-07-03T21:31:48.681Z,2.47
2023-07-03T21:34:15.236Z,5.53
2023-07-03T21:36:42.212Z,4.35
2023-07-03T21:39:10.750Z,4.00
2023-07-03T21:41:38.106Z,4.32
2023-07-03T21:44:17.067Z,4.47
2023-07-03T21:46:44.282Z,3.60
2023-07-03T21:49:13.309Z,3.83
2023-07-03T21:51:40.002Z,2.95
2023-07-03T21:54:06.622Z,3.88
2023-07-03T21:56:33.335Z,4.65
2023-07-03T21:59:04.794Z,4.30
2023-07-03T22:01:34.365Z,4.38
2023-07-03T22:04:02.571Z,3.95
2023-07-03T22:06:29.171Z,4.57
2023-07-03T22:08:56.822Z,3.53
2023-07-03T22:11:24.462Z,2.95
2023-07-03T22:13:51.860Z,3.10
2023-07-03T22:16:19.487Z,1.98
2023-07-03T22:18:46.215Z,3.78
2023-07-03T22:21:13.597Z,3.55
2023-07-03T22:23:40.323Z,3.75
2023-07-03T22:26:07.926Z,3.33
2023-07-03T22:28:34.721Z,2.70
2023-07-03T22:31:01.367Z,3.65
2023-07-03T22:33:29.410Z,2.20
2023-07-03T22:35:56.303Z,3.58
2023-07-03T22:38:23.107Z,3.15
2023-07-03T22:40:51.502Z,3.00
2023-07-03T22:43:18.906Z,3.42
2023-07-03T22:45:45.528Z,4.43
2023-07-03T22:48:12.208Z,4.57
2023-07-03T22:50:42.800Z,3.47
2023-07-03T22:53:10.656Z,3.17
2023-07-03T22:55:41.273Z,4.13
2023-07-03T22:58:10.141Z,3.70
2023-07-03T23:00:40.244Z,3.63
2023-07-03T23:03:08.440Z,2.88
2023-07-03T23:05:50.482Z,2.65
2023-07-03T23:08:17.732Z,3.17
2023-07-03T23:10:55.856Z,2.88
2023-07-03T23:13:24.065Z,4.78
2023-07-03T23:15:59.501Z,3.45
2023-07-03T23:18:29.166Z,4.47
2023-07-03T23:21:00.617Z,2.17
2023-07-03T23:23:30.395Z,3.28
2023-07-03T23:26:03.074Z,2.85
2023-07-03T23:28:35.759Z,4.18
2023-07-03T23:31:11.172Z,3.13
2023-07-03T23:33:39.624Z,1.83
2023-07-03T23:36:10.677Z,3.60
2023-07-03T23:38:40.220Z,3.53
2023-07-03T23:41:07.235Z,3.85
2023-07-03T23:43:34.326Z,2.92
2023-07-03T23:46:04.406Z,3.45
2023-07-03T23:48:32.841Z,3.35
2023-07-03T23:51:02.054Z,3.35
2023-07-03T23:53:29.341Z,3.10
2023-07-03T23:55:56.397Z,4.18
2023-07-03T23:58:23.129Z,2.67
